sensor_id;sensor_type;location;lat;lon;timestamp;pressure;altitude;pressure_sealevel;temperature;humidity
78913;BME280;68303;53.514;-8.850;2023-03-01T00:01:16;103705.75;;;21.45;26.93
78913;BME280;68303;53.514;-8.850;2023-03-01T00:03:39;103706.78;;;21.62;27.00
78913;BME280;68303;53.514;-8.850;2023-03-01T00:06:04;103706.68;;;21.54;27.04
78913;BME280;68303;53.514;-8.850;2023-03-01T00:08:29;103700.96;;;21.70;26.95
78913;BME280;68303;53.514;-8.850;2023-03-01T00:11:01;103699.95;;;21.99;27.08
78913;BME280;68303;53.514;-8.850;2023-03-01T00:13:20;103701.13;;;21.70;26.92
78913;BME280;68303;53.514;-8.850;2023-03-01T00:15:45;103697.09;;;21.57;27.01
78913;BME280;68303;53.514;-8.850;2023-03-01T00:18:10;103696.39;;;21.47;27.09
78913;BME280;68303;53.514;-8.850;2023-03-01T00:20:35;103699.23;;;21.17;27.15
78913;BME280;68303;53.514;-8.850;2023-03-01T00:23:01;103696.99;;;21.55;27.05
78913;BME280;68303;53.514;-8.850;2023-03-01T00:25:26;103693.62;;;21.52;27.11
78913;BME280;68303;53.514;-8.850;2023-03-01T00:27:51;103690.00;;;21.43;27.16
78913;BME280;68303;53.514;-8.850;2023-03-01T00:30:17;103688.84;;;21.55;27.06
78913;BME280;68303;53.514;-8.850;2023-03-01T00:32:42;103687.70;;;21.42;27.15
78913;BME280;68303;53.514;-8.850;2023-03-01T00:35:07;103689.99;;;21.41;27.17
78913;BME280;68303;53.514;-8.850;2023-03-01T00:37:32;103685.74;;;21.96;27.10
78913;BME280;68303;53.514;-8.850;2023-03-01T00:39:57;103687.90;;;21.55;27.05
78913;BME280;68303;53.514;-8.850;2023-03-01T00:42:23;103685.16;;;21.64;26.99
78913;BME280;68303;53.514;-8.850;2023-03-01T00:44:48;103680.90;;;21.21;27.30
78913;BME280;68303;53.514;-8.850;2023-03-01T00:47:13;103678.86;;;21.41;27.15
78913;BME280;68303;53.514;-8.850;2023-03-01T00:49:38;103678.65;;;21.53;27.05
78913;BME280;68303;53.514;-8.850;2023-03-01T00:52:04;103673.57;;;21.40;27.15
78913;BME280;68303;53.514;-8.850;2023-03-01T00:54:29;103676.46;;;21.49;27.07
78913;BME280;68303;53.514;-8.850;2023-03-01T00:56:54;103680.03;;;21.48;27.08
78913;BME280;68303;53.514;-8.850;2023-03-01T00:59:19;103679.02;;;21.46;27.10
78913;BME280;68303;53.514;-8.850;2023-03-01T01:01:44;103677.97;;;21.89;27.15
78913;BME280;68303;53.514;-8.850;2023-03-01T01:04:12;103673.75;;;21.49;27.07
78913;BME280;68303;53.514;-8.850;2023-03-01T01:06:38;103677.10;;;21.35;27.17
78913;BME280;68303;53.514;-8.850;2023-03-01T01:09:02;103674.65;;;21.39;27.15
78913;BME280;68303;53.514;-8.850;2023-03-01T01:11:28;103674.86;;;21.47;27.05
78913;BME280;68303;53.514;-8.850;2023-03-01T01:13:51;103671.06;;;21.46;27.08
78913;BME280;68303;53.514;-8.850;2023-03-01T01:16:19;103665.28;;;21.53;27.21
78913;BME280;68303;53.514;-8.850;2023-03-01T01:18:42;103661.94;;;21.40;27.12
78913;BME280;68303;53.514;-8.850;2023-03-01T01:21:09;103659.64;;;21.39;27.12
78913;BME280;68303;53.514;-8.850;2023-03-01T01:23:33;103658.99;;;21.46;27.11
78913;BME280;68303;53.514;-8.850;2023-03-01T01:26:03;103656.95;;;21.37;26.98
78913;BME280;68303;53.514;-8.850;2023-03-01T01:28:23;103652.01;;;21.47;27.04
78913;BME280;68303;53.514;-8.850;2023-03-01T01:30:48;103646.80;;;21.42;27.11
78913;BME280;68303;53.514;-8.850;2023-03-01T01:33:19;103645.15;;;21.34;27.18
78913;BME280;68303;53.514;-8.850;2023-03-01T01:35:39;103640.40;;;21.65;26.93
78913;BME280;68303;53.514;-8.850;2023-03-01T01:38:04;103639.17;;;21.29;27.19
78913;BME280;68303;53.514;-8.850;2023-03-01T01:40:30;103640.01;;;21.53;27.02
78913;BME280;68303;53.514;-8.850;2023-03-01T01:42:55;103636.44;;;21.40;27.11
78913;BME280;68303;53.514;-8.850;2023-03-01T01:45:28;103631.63;;;21.62;26.94
78913;BME280;68303;53.514;-8.850;2023-03-01T01:47:45;103634.37;;;21.43;27.07
78913;BME280;68303;53.514;-8.850;2023-03-01T01:50:16;103627.32;;;21.42;27.10
78913;BME280;68303;53.514;-8.850;2023-03-01T01:52:37;103625.97;;;21.38;27.11
78913;BME280;68303;53.514;-8.850;2023-03-01T01:55:03;103620.29;;;21.18;27.09
78913;BME280;68303;53.514;-8.850;2023-03-01T01:57:31;103615.38;;;21.49;27.03
78913;BME280;68303;53.514;-8.850;2023-03-01T01:59:55;103613.70;;;21.52;26.99
78913;BME280;68303;53.514;-8.850;2023-03-01T02:02:17;103610.44;;;21.30;27.15
78913;BME280;68303;53.514;-8.850;2023-03-01T02:04:42;103609.38;;;21.35;27.13
78913;BME280;68303;53.514;-8.850;2023-03-01T02:07:14;103602.24;;;21.57;26.97
78913;BME280;68303;53.514;-8.850;2023-03-01T02:09:33;103597.06;;;21.39;27.10
78913;BME280;68303;53.514;-8.850;2023-03-01T02:11:58;103589.49;;;21.32;27.16
78913;BME280;68303;53.514;-8.850;2023-03-01T02:14:23;103587.49;;;21.39;27.11
78913;BME280;68303;53.514;-8.850;2023-03-01T02:16:49;103584.05;;;21.35;27.14
78913;BME280;68303;53.514;-8.850;2023-03-01T02:19:20;103583.65;;;21.40;27.11
78913;BME280;68303;53.514;-8.850;2023-03-01T02:21:45;103574.97;;;21.26;27.20
78913;BME280;68303;53.514;-8.850;2023-03-01T02:24:10;103569.70;;;21.64;27.27
78913;BME280;68303;53.514;-8.850;2023-03-01T02:26:34;103564.84;;;21.81;27.15
78913;BME280;68303;53.514;-8.850;2023-03-01T02:28:55;103563.15;;;21.46;27.04
78913;BME280;68303;53.514;-8.850;2023-03-01T02:31:20;103551.77;;;21.45;27.05
78913;BME280;68303;53.514;-8.850;2023-03-01T02:33:45;103549.76;;;21.49;27.00
78913;BME280;68303;53.514;-8.850;2023-03-01T02:36:15;103548.35;;;21.45;27.06
78913;BME280;68303;53.514;-8.850;2023-03-01T02:38:36;103543.50;;;21.87;27.08
78913;BME280;68303;53.514;-8.850;2023-03-01T02:41:02;103535.52;;;21.26;27.18
78913;BME280;68303;53.514;-8.850;2023-03-01T02:43:30;103535.93;;;21.46;27.05
78913;BME280;68303;53.514;-8.850;2023-03-01T02:45:52;103536.13;;;21.38;27.07
78913;BME280;68303;53.514;-8.850;2023-03-01T02:48:17;103529.62;;;21.58;26.93
78913;BME280;68303;53.514;-8.850;2023-03-01T02:50:52;103531.73;;;21.48;27.00
78913;BME280;68303;53.514;-8.850;2023-03-01T02:53:12;103530.35;;;21.15;27.08
78913;BME280;68303;53.514;-8.850;2023-03-01T02:55:33;103529.62;;;21.13;27.09
78913;BME280;68303;53.514;-8.850;2023-03-01T02:58:02;103530.25;;;21.33;27.11
78913;BME280;68303;53.514;-8.850;2023-03-01T03:00:28;103525.46;;;21.69;26.84
78913;BME280;68303;53.514;-8.850;2023-03-01T03:02:50;103528.07;;;21.46;27.06
78913;BME280;68303;53.514;-8.850;2023-03-01T03:05:16;103521.89;;;21.54;26.96
78913;BME280;68303;53.514;-8.850;2023-03-01T03:07:41;103522.85;;;21.56;26.96
78913;BME280;68303;53.514;-8.850;2023-03-01T03:10:08;103520.43;;;21.72;26.99
78913;BME280;68303;53.514;-8.850;2023-03-01T03:12:29;103516.62;;;21.58;26.96
78913;BME280;68303;53.514;-8.850;2023-03-01T03:14:55;103512.62;;;21.37;27.08
78913;BME280;68303;53.514;-8.850;2023-03-01T03:17:20;103509.30;;;21.40;27.05
78913;BME280;68303;53.514;-8.850;2023-03-01T03:19:45;103506.31;;;21.49;27.02
78913;BME280;68303;53.514;-8.850;2023-03-01T03:22:10;103500.81;;;21.41;27.07
78913;BME280;68303;53.514;-8.850;2023-03-01T03:24:36;103497.04;;;21.46;27.02
78913;BME280;68303;53.514;-8.850;2023-03-01T03:27:01;103499.07;;;21.51;26.95
78913;BME280;68303;53.514;-8.850;2023-03-01T03:29:26;103498.23;;;21.44;27.03
78913;BME280;68303;53.514;-8.850;2023-03-01T03:31:51;103491.83;;;21.55;26.95
78913;BME280;68303;53.514;-8.850;2023-03-01T03:34:16;103488.67;;;21.28;27.14
78913;BME280;68303;53.514;-8.850;2023-03-01T03:36:42;103489.48;;;21.47;27.02
78913;BME280;68303;53.514;-8.850;2023-03-01T03:39:07;103488.76;;;21.73;27.03
78913;BME280;68303;53.514;-8.850;2023-03-01T03:41:39;103483.77;;;21.48;26.99
78913;BME280;68303;53.514;-8.850;2023-03-01T03:43:57;103482.06;;;21.47;27.00
78913;BME280;68303;53.514;-8.850;2023-03-01T03:46:23;103485.20;;;21.57;26.93
78913;BME280;68303;53.514;-8.850;2023-03-01T03:48:48;103485.19;;;21.60;26.90
78913;BME280;68303;53.514;-8.850;2023-03-01T03:51:15;103484.69;;;21.49;26.99
78913;BME280;68303;53.514;-8.850;2023-03-01T03:53:39;103482.57;;;21.33;27.11
78913;BME280;68303;53.514;-8.850;2023-03-01T03:56:05;103481.87;;;21.21;27.19
78913;BME280;68303;53.514;-8.850;2023-03-01T03:58:29;103481.08;;;21.44;27.06
78913;BME280;68303;53.514;-8.850;2023-03-01T04:00:56;103478.75;;;21.54;26.95
78913;BME280;68303;53.514;-8.850;2023-03-01T04:03:20;103477.75;;;21.47;27.01
78913;BME280;68303;53.514;-8.850;2023-03-01T04:05:45;103478.62;;;21.59;26.90
78913;BME280;68303;53.514;-8.850;2023-03-01T04:08:10;103476.88;;;21.46;26.97
78913;BME280;68303;53.514;-8.850;2023-03-01T04:10:37;103476.62;;;21.36;27.10
78913;BME280;68303;53.514;-8.850;2023-03-01T04:13:00;103474.42;;;21.31;27.11
78913;BME280;68303;53.514;-8.850;2023-03-01T04:15:26;103469.34;;;21.55;27.11
78913;BME280;68303;53.514;-8.850;2023-03-01T04:17:52;103463.29;;;21.39;27.06
78913;BME280;68303;53.514;-8.850;2023-03-01T04:20:18;103463.68;;;21.68;26.86
78913;BME280;68303;53.514;-8.850;2023-03-01T04:22:42;103463.22;;;21.46;27.00
78913;BME280;68303;53.514;-8.850;2023-03-01T04:25:07;103465.68;;;21.54;26.93
78913;BME280;68303;53.514;-8.850;2023-03-01T04:27:33;103467.12;;;21.36;27.07
78913;BME280;68303;53.514;-8.850;2023-03-01T04:29:57;103467.61;;;21.50;26.98
78913;BME280;68303;53.514;-8.850;2023-03-01T04:32:22;103465.98;;;21.85;27.08
78913;BME280;68303;53.514;-8.850;2023-03-01T04:34:47;103468.89;;;21.63;26.89
78913;BME280;68303;53.514;-8.850;2023-03-01T04:37:13;103462.83;;;21.51;26.99
78913;BME280;68303;53.514;-8.850;2023-03-01T04:39:38;103458.94;;;21.42;27.03
78913;BME280;68303;53.514;-8.850;2023-03-01T04:42:03;103454.73;;;21.36;27.09
78913;BME280;68303;53.514;-8.850;2023-03-01T04:44:28;103455.55;;;21.76;26.96
78913;BME280;68303;53.514;-8.850;2023-03-01T04:46:54;103456.89;;;21.40;27.05
78913;BME280;68303;53.514;-8.850;2023-03-01T04:49:19;103454.07;;;21.49;26.99
78913;BME280;68303;53.514;-8.850;2023-03-01T04:51:44;103453.16;;;21.28;27.13
78913;BME280;68303;53.514;-8.850;2023-03-01T04:54:09;103452.83;;;21.45;26.99
78913;BME280;68303;53.514;-8.850;2023-03-01T04:56:35;103450.06;;;21.44;27.00
78913;BME280;68303;53.514;-8.850;2023-03-01T04:59:00;103455.56;;;21.49;26.96
78913;BME280;68303;53.514;-8.850;2023-03-01T05:01:25;103451.82;;;21.41;27.02
78913;BME280;68303;53.514;-8.850;2023-03-01T05:03:51;103459.97;;;21.57;26.91
78913;BME280;68303;53.514;-8.850;2023-03-01T05:06:17;103456.69;;;21.33;27.09
78913;BME280;68303;53.514;-8.850;2023-03-01T05:08:42;103457.25;;;21.41;27.04
78913;BME280;68303;53.514;-8.850;2023-03-01T05:11:07;103455.25;;;21.44;26.99
78913;BME280;68303;53.514;-8.850;2023-03-01T05:13:31;103456.79;;;21.55;26.90
78913;BME280;68303;53.514;-8.850;2023-03-01T05:15:58;103450.29;;;21.27;27.14
78913;BME280;68303;53.514;-8.850;2023-03-01T05:18:22;103450.27;;;21.42;27.02
78913;BME280;68303;53.514;-8.850;2023-03-01T05:20:47;103448.32;;;21.53;26.97
78913;BME280;68303;53.514;-8.850;2023-03-01T05:23:13;103449.49;;;21.37;27.07
78913;BME280;68303;53.514;-8.850;2023-03-01T05:25:38;103451.05;;;21.25;27.13
78913;BME280;68303;53.514;-8.850;2023-03-01T05:28:03;103450.90;;;21.51;27.16
78913;BME280;68303;53.514;-8.850;2023-03-01T05:30:28;103454.06;;;21.34;27.08
78913;BME280;68303;53.514;-8.850;2023-03-01T05:32:53;103453.25;;;21.21;27.19
78913;BME280;68303;53.514;-8.850;2023-03-01T05:35:19;103453.31;;;21.33;27.09
78913;BME280;68303;53.514;-8.850;2023-03-01T05:37:46;103454.57;;;21.16;27.03
78913;BME280;68303;53.514;-8.850;2023-03-01T05:40:12;103449.66;;;19.44;25.09
78913;BME280;68303;53.514;-8.850;2023-03-01T05:42:35;103447.36;;;19.83;25.28
78913;BME280;68303;53.514;-8.850;2023-03-01T05:45:00;103449.69;;;19.80;25.77
78913;BME280;68303;53.514;-8.850;2023-03-01T05:47:25;103450.11;;;20.02;25.90
78913;BME280;68303;53.514;-8.850;2023-03-01T05:49:50;103450.29;;;19.58;25.90
78913;BME280;68303;53.514;-8.850;2023-03-01T05:52:16;103450.81;;;19.74;25.88
78913;BME280;68303;53.514;-8.850;2023-03-01T05:54:41;103452.02;;;19.49;26.16
78913;BME280;68303;53.514;-8.850;2023-03-01T05:57:07;103454.85;;;19.57;25.79
78913;BME280;68303;53.514;-8.850;2023-03-01T05:59:32;103458.59;;;19.81;25.85
78913;BME280;68303;53.514;-8.850;2023-03-01T06:01:57;103462.07;;;19.84;25.91
78913;BME280;68303;53.514;-8.850;2023-03-01T06:04:22;103464.35;;;19.48;25.91
78913;BME280;68303;53.514;-8.850;2023-03-01T06:06:47;103468.81;;;19.39;25.97
78913;BME280;68303;53.514;-8.850;2023-03-01T06:09:13;103471.57;;;19.45;25.82
78913;BME280;68303;53.514;-8.850;2023-03-01T06:11:38;103472.07;;;19.43;25.92
78913;BME280;68303;53.514;-8.850;2023-03-01T06:14:05;103473.42;;;19.02;25.99
78913;BME280;68303;53.514;-8.850;2023-03-01T06:16:29;103469.77;;;19.33;25.93
78913;BME280;68303;53.514;-8.850;2023-03-01T06:18:54;103468.86;;;19.46;25.95
78913;BME280;68303;53.514;-8.850;2023-03-01T06:21:19;103467.46;;;19.35;25.93
78913;BME280;68303;53.514;-8.850;2023-03-01T06:23:45;103462.90;;;19.04;26.12
78913;BME280;68303;53.514;-8.850;2023-03-01T06:26:10;103460.99;;;19.00;26.12
78913;BME280;68303;53.514;-8.850;2023-03-01T06:28:36;103463.18;;;19.30;25.97
78913;BME280;68303;53.514;-8.850;2023-03-01T06:31:02;103464.63;;;18.72;26.04
78913;BME280;68303;53.514;-8.850;2023-03-01T06:33:26;103464.63;;;18.78;26.04
78913;BME280;68303;53.514;-8.850;2023-03-01T06:35:53;103464.64;;;18.86;26.01
78913;BME280;68303;53.514;-8.850;2023-03-01T06:38:17;103457.57;;;18.93;25.93
78913;BME280;68303;53.514;-8.850;2023-03-01T06:40:42;103455.46;;;18.91;26.04
78913;BME280;68303;53.514;-8.850;2023-03-01T06:43:07;103455.51;;;19.00;26.13
78913;BME280;68303;53.514;-8.850;2023-03-01T06:45:33;103456.07;;;18.94;26.01
78913;BME280;68303;53.514;-8.850;2023-03-01T06:48:02;103457.19;;;19.20;25.99
78913;BME280;68303;53.514;-8.850;2023-03-01T06:50:23;103460.94;;;18.95;26.14
78913;BME280;68303;53.514;-8.850;2023-03-01T06:52:55;103455.32;;;18.92;26.11
78913;BME280;68303;53.514;-8.850;2023-03-01T06:55:14;103448.99;;;18.94;26.18
78913;BME280;68303;53.514;-8.850;2023-03-01T06:57:39;103448.08;;;18.90;26.15
78913;BME280;68303;53.514;-8.850;2023-03-01T07:00:05;103449.61;;;18.66;26.18
78913;BME280;68303;53.514;-8.850;2023-03-01T07:02:29;103447.26;;;18.75;26.13
78913;BME280;68303;53.514;-8.850;2023-03-01T07:04:55;103450.73;;;19.05;26.11
78913;BME280;68303;53.514;-8.850;2023-03-01T07:07:20;103451.06;;;18.72;26.12
78913;BME280;68303;53.514;-8.850;2023-03-01T07:09:46;103456.12;;;19.06;26.09
78913;BME280;68303;53.514;-8.850;2023-03-01T07:12:11;103456.81;;;18.69;26.29
78913;BME280;68303;53.514;-8.850;2023-03-01T07:14:36;103458.95;;;18.56;26.43
78913;BME280;68303;53.514;-8.850;2023-03-01T07:17:02;103458.28;;;18.73;26.43
78913;BME280;68303;53.514;-8.850;2023-03-01T07:19:27;103457.23;;;19.18;26.15
78913;BME280;68303;53.514;-8.850;2023-03-01T07:21:53;103461.16;;;18.07;26.80
78913;BME280;68303;53.514;-8.850;2023-03-01T07:24:19;103455.19;;;18.40;26.27
78913;BME280;68303;53.514;-8.850;2023-03-01T07:26:48;103454.99;;;18.32;25.99
78913;BME280;68303;53.514;-8.850;2023-03-01T07:29:10;103458.22;;;18.63;25.89
78913;BME280;68303;53.514;-8.850;2023-03-01T07:31:36;103459.90;;;18.07;25.73
78913;BME280;68303;53.514;-8.850;2023-03-01T07:34:02;103462.09;;;18.36;25.43
78913;BME280;68303;53.514;-8.850;2023-03-01T07:36:28;103463.71;;;17.93;25.27
78913;BME280;68303;53.514;-8.850;2023-03-01T07:38:53;103461.31;;;18.22;25.13
78913;BME280;68303;53.514;-8.850;2023-03-01T07:41:18;103459.48;;;18.16;25.03
78913;BME280;68303;53.514;-8.850;2023-03-01T07:43:44;103466.16;;;18.52;24.87
78913;BME280;68303;53.514;-8.850;2023-03-01T07:46:09;103466.85;;;18.01;24.99
78913;BME280;68303;53.514;-8.850;2023-03-01T07:48:34;103466.55;;;18.24;24.98
78913;BME280;68303;53.514;-8.850;2023-03-01T07:51:00;103463.73;;;18.46;24.54
78913;BME280;68303;53.514;-8.850;2023-03-01T07:53:25;103459.45;;;18.59;24.59
78913;BME280;68303;53.514;-8.850;2023-03-01T07:56:01;103463.94;;;17.91;24.89
78913;BME280;68303;53.514;-8.850;2023-03-01T07:58:16;103462.07;;;18.05;24.73
78913;BME280;68303;53.514;-8.850;2023-03-01T08:00:41;103459.81;;;18.95;24.61
78913;BME280;68303;53.514;-8.850;2023-03-01T08:03:07;103461.96;;;18.51;24.59
78913;BME280;68303;53.514;-8.850;2023-03-01T08:05:32;103461.79;;;18.85;24.71
78913;BME280;68303;53.514;-8.850;2023-03-01T08:07:58;103462.11;;;18.81;24.67
78913;BME280;68303;53.514;-8.850;2023-03-01T08:10:23;103462.62;;;18.93;25.21
78913;BME280;68303;53.514;-8.850;2023-03-01T08:12:51;103461.59;;;17.60;28.01
78913;BME280;68303;53.514;-8.850;2023-03-01T08:15:14;103460.03;;;17.28;28.56
78913;BME280;68303;53.514;-8.850;2023-03-01T08:17:39;103463.00;;;16.08;29.47
78913;BME280;68303;53.514;-8.850;2023-03-01T08:20:06;103459.49;;;17.24;28.61
78913;BME280;68303;53.514;-8.850;2023-03-01T08:22:29;103453.11;;;18.94;27.04
78913;BME280;68303;53.514;-8.850;2023-03-01T08:24:55;103450.82;;;19.55;26.72
78913;BME280;68303;53.514;-8.850;2023-03-01T08:27:20;103456.16;;;20.47;26.05
78913;BME280;68303;53.514;-8.850;2023-03-01T08:29:45;103455.44;;;19.99;26.30
78913;BME280;68303;53.514;-8.850;2023-03-01T08:32:11;103456.56;;;20.54;25.83
78913;BME280;68303;53.514;-8.850;2023-03-01T08:34:36;103458.63;;;20.92;26.16
78913;BME280;68303;53.514;-8.850;2023-03-01T08:37:02;103455.33;;;20.91;26.21
78913;BME280;68303;53.514;-8.850;2023-03-01T08:39:27;103456.04;;;21.32;26.41
78913;BME280;68303;53.514;-8.850;2023-03-01T08:41:53;103456.94;;;21.06;26.52
78913;BME280;68303;53.514;-8.850;2023-03-01T08:44:18;103460.88;;;21.12;26.78
78913;BME280;68303;53.514;-8.850;2023-03-01T08:46:44;103458.37;;;21.90;26.54
78913;BME280;68303;53.514;-8.850;2023-03-01T08:49:12;103458.05;;;21.08;27.00
78913;BME280;68303;53.514;-8.850;2023-03-01T08:51:34;103462.74;;;21.37;27.05
78913;BME280;68303;53.514;-8.850;2023-03-01T08:54:00;103463.38;;;21.57;27.00
78913;BME280;68303;53.514;-8.850;2023-03-01T08:56:26;103466.67;;;21.99;27.06
78913;BME280;68303;53.514;-8.850;2023-03-01T08:58:51;103469.18;;;21.88;26.93
78913;BME280;68303;53.514;-8.850;2023-03-01T09:01:18;103468.21;;;21.89;27.06
78913;BME280;68303;53.514;-8.850;2023-03-01T09:03:42;103470.57;;;21.99;27.22
78913;BME280;68303;53.514;-8.850;2023-03-01T09:06:08;103468.96;;;22.12;27.14
78913;BME280;68303;53.514;-8.850;2023-03-01T09:08:34;103469.71;;;21.89;27.23
78913;BME280;68303;53.514;-8.850;2023-03-01T09:11:01;103467.52;;;22.09;27.09
78913;BME280;68303;53.514;-8.850;2023-03-01T11:56:29;103376.96;;;23.04;28.63
78913;BME280;68303;53.514;-8.850;2023-03-01T11:59:03;103377.94;;;23.08;28.62
78913;BME280;68303;53.514;-8.850;2023-03-01T12:01:26;103374.30;;;23.02;28.70
78913;BME280;68303;53.514;-8.850;2023-03-01T12:03:51;103373.87;;;23.19;28.56
78913;BME280;68303;53.514;-8.850;2023-03-01T12:08:35;103371.27;;;23.24;28.42
78913;BME280;68303;53.514;-8.850;2023-03-01T12:11:02;103371.59;;;23.42;28.30
78913;BME280;68303;53.514;-8.850;2023-03-01T12:13:33;103367.31;;;23.51;28.29
78913;BME280;68303;53.514;-8.850;2023-03-01T12:15:55;103363.85;;;23.68;28.21
78913;BME280;68303;53.514;-8.850;2023-03-01T12:20:42;103360.54;;;23.63;28.26
78913;BME280;68303;53.514;-8.850;2023-03-01T12:25:32;103354.89;;;23.58;28.46
78913;BME280;68303;53.514;-8.850;2023-03-01T12:28:08;103354.63;;;23.61;28.46
78913;BME280;68303;53.514;-8.850;2023-03-01T12:30:26;103350.95;;;23.58;28.29
78913;BME280;68303;53.514;-8.850;2023-03-01T12:32:48;103340.68;;;22.80;28.91
78913;BME280;68303;53.514;-8.850;2023-03-01T12:37:42;103330.91;;;23.27;28.27
78913;BME280;68303;53.514;-8.850;2023-03-01T12:40:15;103324.49;;;23.28;28.16
78913;BME280;68303;53.514;-8.850;2023-03-01T12:42:31;103319.73;;;23.50;28.09
78913;BME280;68303;53.514;-8.850;2023-03-01T12:45:01;103316.82;;;23.57;28.06
78913;BME280;68303;53.514;-8.850;2023-03-01T12:47:25;103314.64;;;23.73;27.93
78913;BME280;68303;53.514;-8.850;2023-03-01T12:49:42;103313.47;;;23.68;28.10
78913;BME280;68303;53.514;-8.850;2023-03-01T12:52:11;103308.48;;;23.80;28.14
78913;BME280;68303;53.514;-8.850;2023-03-01T12:54:32;103307.52;;;23.69;28.06
78913;BME280;68303;53.514;-8.850;2023-03-01T12:56:56;103309.07;;;22.93;28.35
78913;BME280;68303;53.514;-8.850;2023-03-01T12:59:25;103309.58;;;23.34;28.26
78913;BME280;68303;53.514;-8.850;2023-03-01T13:01:51;103305.89;;;23.37;28.21
78913;BME280;68303;53.514;-8.850;2023-03-01T13:04:20;103304.92;;;23.34;28.47
78913;BME280;68303;53.514;-8.850;2023-03-01T13:06:43;103302.36;;;23.20;28.63
78913;BME280;68303;53.514;-8.850;2023-03-01T13:09:06;103299.85;;;23.43;28.45
78913;BME280;68303;53.514;-8.850;2023-03-01T13:11:27;103298.84;;;23.47;28.26
78913;BME280;68303;53.514;-8.850;2023-03-01T13:18:42;103284.72;;;23.51;28.37
78913;BME280;68303;53.514;-8.850;2023-03-01T13:21:08;103284.81;;;23.67;28.49
78913;BME280;68303;53.514;-8.850;2023-03-01T13:23:35;103283.12;;;23.47;28.54
78913;BME280;68303;53.514;-8.850;2023-03-01T13:26:03;103279.51;;;23.47;28.57
78913;BME280;68303;53.514;-8.850;2023-03-01T13:28:38;103273.09;;;23.57;28.69
78913;BME280;68303;53.514;-8.850;2023-03-01T13:30:49;103267.39;;;23.51;28.75
78913;BME280;68303;53.514;-8.850;2023-03-01T13:33:33;103265.45;;;23.65;28.59
78913;BME280;68303;53.514;-8.850;2023-03-01T13:35:42;103261.08;;;23.15;29.05
78913;BME280;68303;53.514;-8.850;2023-03-01T13:42:56;103255.03;;;23.36;28.72
78913;BME280;68303;53.514;-8.850;2023-03-01T13:45:31;103248.54;;;23.37;28.71
78913;BME280;68303;53.514;-8.850;2023-03-01T13:47:54;103244.45;;;23.08;28.67
78913;BME280;68303;53.514;-8.850;2023-03-01T13:50:19;103241.11;;;23.20;28.57
78913;BME280;68303;53.514;-8.850;2023-03-01T13:52:40;103240.12;;;23.37;28.49
78913;BME280;68303;53.514;-8.850;2023-03-01T13:55:13;103237.88;;;23.34;28.44
78913;BME280;68303;53.514;-8.850;2023-03-01T13:57:33;103237.66;;;23.30;28.42
78913;BME280;68303;53.514;-8.850;2023-03-01T13:59:54;103232.01;;;23.32;28.36
78913;BME280;68303;53.514;-8.850;2023-03-01T14:02:20;103228.50;;;23.22;28.39
78913;BME280;68303;53.514;-8.850;2023-03-01T14:07:12;103214.45;;;23.09;28.54
78913;BME280;68303;53.514;-8.850;2023-03-01T14:09:37;103210.92;;;23.32;28.43
78913;BME280;68303;53.514;-8.850;2023-03-01T14:12:15;103205.41;;;23.24;28.15
78913;BME280;68303;53.514;-8.850;2023-03-01T14:14:33;103198.17;;;23.64;28.02
78913;BME280;68303;53.514;-8.850;2023-03-01T14:16:58;103195.18;;;23.13;28.53
78913;BME280;68303;53.514;-8.850;2023-03-01T14:19:19;103181.97;;;23.63;28.05
78913;BME280;68303;53.514;-8.850;2023-03-01T14:21:42;103173.55;;;23.60;28.16
78913;BME280;68303;53.514;-8.850;2023-03-01T14:24:17;103169.43;;;23.49;28.37
78913;BME280;68303;53.514;-8.850;2023-03-01T14:26:35;103164.69;;;23.52;28.43
78913;BME280;68303;53.514;-8.850;2023-03-01T14:28:58;103161.67;;;23.57;28.50
78913;BME280;68303;53.514;-8.850;2023-03-01T14:31:39;103157.04;;;23.71;28.48
78913;BME280;68303;53.514;-8.850;2023-03-01T14:33:55;103151.33;;;23.32;28.57
78913;BME280;68303;53.514;-8.850;2023-03-01T14:36:15;103151.93;;;23.45;28.55
78913;BME280;68303;53.514;-8.850;2023-03-01T14:38:41;103148.68;;;23.43;28.58
78913;BME280;68303;53.514;-8.850;2023-03-01T14:41:08;103142.79;;;23.39;28.64
78913;BME280;68303;53.514;-8.850;2023-03-01T14:43:31;103140.89;;;23.40;28.62
78913;BME280;68303;53.514;-8.850;2023-03-01T14:45:57;103141.35;;;23.41;28.62
78913;BME280;68303;53.514;-8.850;2023-03-01T14:48:22;103137.41;;;23.44;28.62
78913;BME280;68303;53.514;-8.850;2023-03-01T14:50:47;103126.52;;;23.56;28.51
78913;BME280;68303;53.514;-8.850;2023-03-01T14:53:17;103124.09;;;23.46;28.63
78913;BME280;68303;53.514;-8.850;2023-03-01T14:55:41;103125.90;;;23.61;28.71
78913;BME280;68303;53.514;-8.850;2023-03-01T14:58:05;103125.62;;;23.34;28.73
78913;BME280;68303;53.514;-8.850;2023-03-01T15:00:30;103121.73;;;23.18;28.65
78913;BME280;68303;53.514;-8.850;2023-03-01T15:02:55;103118.47;;;23.09;28.76
78913;BME280;68303;53.514;-8.850;2023-03-01T15:05:25;103117.62;;;23.16;28.73
78913;BME280;68303;53.514;-8.850;2023-03-01T15:07:45;103119.50;;;23.34;28.77
78913;BME280;68303;53.514;-8.850;2023-03-01T15:10:17;103116.32;;;23.19;28.62
78913;BME280;68303;53.514;-8.850;2023-03-01T15:12:38;103114.63;;;23.23;28.78
78913;BME280;68303;53.514;-8.850;2023-03-01T15:15:00;103106.06;;;23.81;28.33
78913;BME280;68303;53.514;-8.850;2023-03-01T15:17:28;103104.32;;;23.67;28.32
78913;BME280;68303;53.514;-8.850;2023-03-01T15:19:51;103101.79;;;23.68;28.47
78913;BME280;68303;53.514;-8.850;2023-03-01T15:22:17;103093.56;;;23.63;28.47
78913;BME280;68303;53.514;-8.850;2023-03-01T15:24:46;103090.04;;;23.71;28.57
78913;BME280;68303;53.514;-8.850;2023-03-01T15:27:14;103084.11;;;23.65;29.03
78913;BME280;68303;53.514;-8.850;2023-03-01T15:29:34;103079.76;;;23.53;28.99
78913;BME280;68303;53.514;-8.850;2023-03-01T15:31:59;103080.79;;;23.79;29.21
78913;BME280;68303;53.514;-8.850;2023-03-01T15:34:25;103075.52;;;23.30;29.33